createdAt,value
2018-03-24T00:00:31.402Z,21.06
2018-03-24T00:01:40.809Z,21.15
2018-03-24T00:02:49.914Z,20.97
2018-03-24T00:03:59.306Z,21.15
2018-03-24T00:05:08.137Z,21.15
2018-03-24T00:06:16.967Z,21.15
2018-03-24T00:07:26.129Z,21.15
2018-03-24T00:08:34.961Z,21.15
2018-03-24T00:09:44.069Z,21.25
2018-03-24T00:10:52.903Z,21.15
2018-03-24T00:12:01.736Z,21.17
2018-03-24T00:13:10.894Z,21.15
2018-03-24T00:14:19.726Z,20.97
2018-03-24T00:15:28.835Z,21.15
2018-03-24T00:16:37.946Z,20.97
2018-03-24T00:17:46.780Z,21.15
2018-03-24T00:18:55.613Z,21.15
2018-03-24T00:20:04.717Z,21.15
2018-03-24T00:21:14.103Z,20.97
2018-03-24T00:22:23.210Z,21.06
2018-03-24T00:23:32.039Z,20.97
2018-03-24T00:24:41.069Z,21.06
2018-03-24T00:25:49.898Z,21.06
2018-03-24T00:26:58.729Z,20.78
2018-03-24T00:28:07.560Z,20.97
2018-03-24T00:29:16.391Z,20.87
2018-03-24T00:30:25.221Z,20.68
2018-03-24T00:31:34.054Z,20.87
2018-03-24T00:32:43.163Z,20.87
2018-03-24T00:33:52.005Z,20.78
2018-03-24T00:35:01.109Z,20.78
2018-03-24T00:36:10.093Z,20.68
2018-03-24T00:37:18.922Z,20.59
2018-03-24T00:38:27.752Z,20.78
2018-03-24T00:39:36.580Z,20.69
2018-03-24T00:40:45.410Z,20.78
2018-03-24T00:41:54.349Z,20.78
2018-03-24T00:43:03.453Z,20.97
2018-03-24T00:44:12.560Z,20.68
2018-03-24T00:45:21.390Z,20.78
2018-03-24T00:46:30.224Z,20.78
2018-03-24T00:47:39.212Z,20.78
2018-03-24T00:48:48.315Z,20.68
2018-03-24T00:49:57.148Z,20.68
2018-03-24T00:51:05.978Z,20.97
2018-03-24T00:52:15.085Z,20.79
2018-03-24T00:53:24.018Z,20.78
2018-03-24T00:54:32.851Z,20.78
2018-03-24T00:55:41.970Z,20.78
2018-03-24T00:56:50.801Z,20.6
2018-03-24T00:57:59.631Z,20.98
2018-03-24T00:59:08.563Z,20.87
2018-03-24T01:00:17.401Z,20.59
2018-03-24T01:01:26.508Z,20.59
2018-03-24T01:02:35.337Z,20.78
2018-03-24T01:03:44.169Z,20.59
2018-03-24T01:04:53.101Z,20.68
2018-03-24T01:06:02.209Z,20.59
2018-03-24T01:07:11.043Z,20.68
2018-03-24T01:08:19.874Z,20.5
2018-03-24T01:09:28.706Z,20.79
2018-03-24T01:10:37.638Z,20.5
2018-03-24T01:11:46.471Z,20.79
2018-03-24T01:12:55.304Z,20.6
2018-03-24T01:14:04.138Z,20.98
2018-03-24T01:15:13.244Z,20.6
2018-03-24T01:16:22.224Z,20.89
2018-03-24T01:17:31.054Z,20.79
2018-03-24T01:18:40.160Z,20.89
2018-03-24T01:19:48.993Z,20.79
2018-03-24T01:20:57.829Z,20.87
2018-03-24T01:22:07.513Z,20.79
2018-03-24T01:23:16.344Z,20.98
2018-03-24T01:24:25.176Z,20.69
2018-03-24T01:25:34.008Z,20.79
2018-03-24T01:26:42.841Z,20.79
2018-03-24T01:27:51.827Z,20.79
2018-03-24T01:29:00.932Z,20.79
2018-03-24T01:30:09.763Z,20.89
2018-03-24T01:31:18.886Z,20.68
2018-03-24T01:32:28.001Z,20.68
2018-03-24T01:33:37.105Z,20.6
2018-03-24T01:34:46.211Z,21.08
2018-03-24T01:35:55.325Z,20.89
2018-03-24T01:37:04.434Z,20.89
2018-03-24T01:38:13.268Z,20.89
2018-03-24T01:39:22.150Z,20.78
2018-03-24T01:40:30.985Z,20.98
2018-03-24T01:41:39.815Z,20.79
2018-03-24T01:42:48.656Z,20.69
2018-03-24T01:43:57.483Z,20.87
2018-03-24T01:45:06.365Z,20.97
2018-03-24T01:46:15.765Z,20.87
2018-03-24T01:47:24.870Z,20.79
2018-03-24T01:48:33.701Z,20.89
2018-03-24T01:49:42.541Z,20.89
2018-03-24T01:50:51.370Z,20.98
2018-03-24T01:52:00.201Z,20.98
2018-03-24T01:53:09.035Z,20.69
2018-03-24T01:54:17.869Z,20.78
2018-03-24T01:55:26.695Z,20.78
2018-03-24T01:56:36.103Z,20.79
2018-03-24T01:57:44.932Z,20.78
2018-03-24T01:58:53.763Z,20.79
2018-03-24T02:00:02.597Z,20.79
2018-03-24T02:01:11.425Z,20.89
2018-03-24T02:02:20.409Z,20.78
2018-03-24T02:03:29.237Z,20.78
2018-03-24T02:04:38.069Z,21.08
2018-03-24T02:05:47.175Z,21.06
2018-03-24T02:06:56.012Z,21.06
2018-03-24T02:08:04.939Z,20.97
2018-03-24T02:09:13.768Z,20.97
2018-03-24T02:10:22.601Z,21.15
2018-03-24T02:11:31.631Z,21.15
2018-03-24T02:12:40.463Z,21.15
2018-03-24T02:13:49.346Z,21.08
2018-03-24T02:14:58.179Z,21.25
2018-03-24T02:16:07.016Z,20.97
2018-03-24T02:17:15.849Z,21.54
2018-03-24T02:18:24.684Z,21.44
2018-03-24T02:19:33.568Z,21.35
2018-03-24T02:20:42.398Z,20.89
2018-03-24T02:21:51.229Z,20.97
2018-03-24T02:23:00.059Z,20.97
2018-03-24T02:24:08.890Z,21.35
2018-03-24T02:25:17.870Z,20.97
2018-03-24T02:26:26.708Z,20.87
2018-03-24T02:27:35.545Z,21.45
2018-03-24T02:28:44.368Z,21.44
2018-03-24T02:29:53.202Z,21.64
2018-03-24T02:31:02.036Z,21.54
2018-03-24T02:32:10.864Z,21.36
2018-03-24T02:33:19.974Z,21.25
2018-03-24T02:34:29.096Z,21.36
2018-03-24T02:35:37.926Z,21.45
2018-03-24T02:36:46.809Z,21.64
2018-03-24T02:37:55.918Z,21.44
2018-03-24T02:39:05.028Z,21.35
2018-03-24T02:40:13.859Z,21.35
2018-03-24T02:41:22.693Z,21.55
2018-03-24T02:42:31.626Z,21.64
2018-03-24T02:43:40.458Z,21.15
2018-03-24T02:44:49.293Z,21.44
2018-03-24T02:45:58.126Z,21.54
2018-03-24T02:47:06.957Z,21.44
2018-03-24T02:48:16.086Z,21.55
2018-03-24T02:49:24.919Z,21.44
2018-03-24T02:50:33.757Z,20.97
2018-03-24T02:51:42.871Z,20.87
2018-03-24T02:52:51.705Z,21.15
2018-03-24T02:54:00.636Z,21.44
2018-03-24T02:55:09.467Z,21.08
2018-03-24T02:56:18.296Z,20.97
2018-03-24T02:57:27.127Z,21.44
2018-03-24T02:58:35.961Z,21.54
2018-03-24T02:59:45.171Z,20.97
2018-03-24T03:00:54.001Z,21.08
2018-03-24T03:02:02.835Z,21.44
2018-03-24T03:03:11.667Z,21.06
2018-03-24T03:04:20.498Z,20.98
2018-03-24T03:05:29.434Z,20.98
2018-03-24T03:06:38.545Z,21.54
2018-03-24T03:07:47.933Z,21.55
2018-03-24T03:08:56.764Z,21.44
2018-03-24T03:10:05.596Z,21.06
2018-03-24T03:11:14.478Z,21.06
2018-03-24T03:12:23.307Z,21.44
2018-03-24T03:13:32.137Z,21.44
2018-03-24T03:14:40.973Z,21.44
2018-03-24T03:15:49.803Z,21.35
2018-03-24T03:16:58.789Z,21.63
2018-03-24T03:18:07.626Z,21.44
2018-03-24T03:19:16.729Z,21.55
2018-03-24T03:20:25.562Z,21.63
2018-03-24T03:21:34.392Z,21.45
2018-03-24T03:22:43.377Z,21.64
2018-03-24T03:23:52.211Z,21.82
2018-03-24T03:25:01.042Z,21.54
2018-03-24T03:26:10.433Z,21.63
2018-03-24T03:27:19.264Z,21.63
2018-03-24T03:28:28.151Z,21.73
2018-03-24T03:29:36.992Z,21.74
2018-03-24T03:30:45.828Z,21.63
2018-03-24T03:31:54.664Z,21.63
2018-03-24T03:33:03.798Z,21.74
2018-03-24T03:34:12.716Z,21.64
2018-03-24T03:35:21.553Z,21.83
2018-03-24T03:36:30.381Z,21.82
2018-03-24T03:37:39.212Z,21.82
2018-03-24T03:38:48.650Z,21.74
2018-03-24T03:39:57.633Z,22.01
2018-03-24T03:41:06.464Z,21.92
2018-03-24T03:42:15.296Z,21.74
2018-03-24T03:43:24.130Z,21.93
2018-03-24T03:44:33.011Z,21.82
2018-03-24T03:45:41.845Z,21.93
2018-03-24T03:46:50.672Z,22.31
2018-03-24T03:47:59.776Z,21.82
2018-03-24T03:49:08.607Z,22.11
2018-03-24T03:50:17.722Z,21.92
2018-03-24T03:51:26.801Z,21.92
2018-03-24T03:52:35.636Z,21.82
2018-03-24T03:53:44.467Z,22.2
2018-03-24T03:54:53.302Z,21.93
2018-03-24T03:56:02.127Z,22.11
2018-03-24T03:57:11.058Z,22.11
2018-03-24T03:58:19.890Z,22.39
2018-03-24T03:59:28.994Z,21.82
2018-03-24T04:00:38.101Z,22.01
2018-03-24T04:01:47.204Z,21.82
2018-03-24T04:02:56.086Z,22.21
2018-03-24T04:04:04.918Z,22.3
2018-03-24T04:05:13.748Z,22.2
2018-03-24T04:06:22.577Z,22.11
2018-03-24T04:07:31.407Z,22.2
2018-03-24T04:08:40.514Z,22.3
2018-03-24T04:09:49.343Z,22.2
2018-03-24T04:10:58.464Z,22.11
2018-03-24T04:12:07.295Z,22.3
2018-03-24T04:13:16.123Z,22.3
2018-03-24T04:14:24.961Z,22.2
2018-03-24T04:15:33.788Z,22.21
2018-03-24T04:16:42.619Z,22.11
2018-03-24T04:17:51.449Z,22.3
2018-03-24T04:19:00.285Z,22.3
2018-03-24T04:20:09.647Z,22.2
2018-03-24T04:21:18.757Z,22.2
2018-03-24T04:22:27.585Z,22.31
2018-03-24T04:23:36.415Z,22.3
2018-03-24T04:24:45.248Z,22.2
2018-03-24T04:25:54.077Z,22.01
2018-03-24T04:27:02.909Z,22.11
2018-03-24T04:28:11.741Z,22.3
2018-03-24T04:29:20.570Z,22.2
2018-03-24T04:30:29.400Z,22.31
2018-03-24T04:31:38.231Z,22.3
2018-03-24T04:32:47.063Z,22.4
2018-03-24T04:33:55.896Z,22.21
2018-03-24T04:35:04.726Z,22.2
2018-03-24T04:36:13.556Z,22.3
2018-03-24T04:37:22.487Z,22.3
2018-03-24T04:38:31.612Z,22.21
2018-03-24T04:39:40.441Z,22.31
2018-03-24T04:40:49.272Z,22.3
2018-03-24T04:41:58.101Z,22.31
2018-03-24T04:43:07.041Z,22.21
2018-03-24T04:44:15.873Z,22.3
2018-03-24T04:45:24.707Z,22.3
2018-03-24T04:46:33.538Z,22.3
2018-03-24T04:47:42.369Z,22.2
2018-03-24T04:48:51.600Z,22.3
2018-03-24T04:50:00.431Z,22.3
2018-03-24T04:51:09.261Z,22.11
2018-03-24T04:52:18.098Z,22.11
2018-03-24T04:53:26.926Z,22.2
2018-03-24T04:54:35.756Z,22.3
2018-03-24T04:55:44.586Z,22.2
2018-03-24T04:56:53.418Z,22.2
2018-03-24T04:58:02.252Z,22.2
2018-03-24T04:59:11.085Z,22.31
2018-03-24T05:00:20.166Z,22.3
2018-03-24T05:01:28.999Z,22.2
2018-03-24T05:02:37.831Z,22.11
2018-03-24T05:03:46.658Z,22.3
2018-03-24T05:04:55.490Z,22.39
2018-03-24T05:06:04.369Z,22.31
2018-03-24T05:07:13.202Z,22.2
2018-03-24T05:08:22.040Z,22.39
2018-03-24T05:09:31.144Z,22.3
2018-03-24T05:10:39.975Z,22.11
2018-03-24T05:11:49.103Z,22.3
2018-03-24T05:12:57.930Z,22.39
2018-03-24T05:14:06.760Z,22.39
2018-03-24T05:15:15.869Z,22.2
2018-03-24T05:16:24.702Z,22.3
2018-03-24T05:17:33.688Z,22.39
2018-03-24T05:18:42.516Z,22.39
2018-03-24T05:19:51.346Z,22.3
2018-03-24T05:21:00.175Z,22.2
2018-03-24T05:22:09.285Z,22.3
2018-03-24T05:23:18.118Z,22.3
2018-03-24T05:24:26.947Z,22.3
2018-03-24T05:25:36.061Z,22.3
2018-03-24T05:26:44.893Z,22.39
2018-03-24T05:27:54.278Z,22.3
2018-03-24T05:29:03.108Z,22.3
2018-03-24T05:30:11.937Z,22.3
2018-03-24T05:31:20.776Z,22.2
2018-03-24T05:32:29.598Z,22.3
2018-03-24T05:33:38.430Z,22.39
2018-03-24T05:34:47.561Z,22.3
2018-03-24T05:35:56.392Z,22.2
2018-03-24T05:37:05.220Z,22.39
2018-03-24T05:38:14.053Z,22.39
2018-03-24T05:39:22.883Z,22.2
2018-03-24T05:40:32.012Z,22.3
2018-03-24T05:41:40.844Z,22.39
2018-03-24T05:42:49.956Z,22.3
2018-03-24T05:43:58.788Z,22.3
2018-03-24T05:45:07.895Z,22.3
2018-03-24T05:46:16.727Z,22.3
2018-03-24T05:47:25.557Z,22.3
2018-03-24T05:48:34.467Z,22.3
2018-03-24T05:49:43.219Z,22.2
2018-03-24T05:50:52.050Z,22.39
2018-03-24T05:52:00.885Z,22.2
2018-03-24T05:53:09.714Z,22.3
2018-03-24T05:54:18.544Z,22.3
2018-03-24T05:55:27.375Z,22.3
2018-03-24T05:56:36.206Z,22.3
2018-03-24T05:57:45.039Z,22.11
2018-03-24T05:58:53.871Z,22.39
2018-03-24T06:00:02.704Z,22.3
2018-03-24T06:01:11.540Z,22.39
2018-03-24T06:02:20.646Z,22.3
2018-03-24T06:03:29.776Z,22.2
2018-03-24T06:04:38.607Z,22.3
2018-03-24T06:05:47.436Z,22.3
2018-03-24T06:06:56.268Z,22.3
2018-03-24T06:08:05.099Z,22.01
2018-03-24T06:09:14.303Z,22.2
2018-03-24T06:10:23.133Z,22.39
2018-03-24T06:11:31.965Z,22.11
2018-03-24T06:12:41.073Z,22.2
2018-03-24T06:13:49.902Z,22.3
2018-03-24T06:14:58.790Z,22.39
2018-03-24T06:16:07.621Z,22.39
2018-03-24T06:17:16.450Z,22.2
2018-03-24T06:18:25.281Z,22.2
2018-03-24T06:19:34.113Z,22.49
2018-03-24T06:20:43.194Z,22.11
2018-03-24T06:21:52.026Z,22.3
2018-03-24T06:23:00.858Z,22.21
2018-03-24T06:24:09.686Z,22.3
2018-03-24T06:25:18.520Z,22.2
2018-03-24T06:26:27.502Z,22.2
2018-03-24T06:27:36.333Z,22.3
2018-03-24T06:28:45.165Z,22.39
2018-03-24T06:29:53.996Z,22.31
2018-03-24T06:31:02.825Z,22.3
2018-03-24T06:32:12.232Z,22.11
2018-03-24T06:33:21.067Z,22.11
2018-03-24T06:34:29.897Z,22.5
2018-03-24T06:35:39.007Z,22.2
2018-03-24T06:36:47.837Z,22.21
2018-03-24T06:37:56.770Z,22.31
2018-03-24T06:39:05.927Z,22.02
2018-03-24T06:40:14.758Z,22.21
2018-03-24T06:41:23.589Z,22.21
2018-03-24T06:42:32.420Z,22.31
2018-03-24T06:43:41.402Z,22.4
2018-03-24T06:44:50.303Z,22.21
2018-03-24T06:45:59.067Z,22.31
2018-03-24T06:47:07.902Z,22.31
2018-03-24T06:48:16.732Z,22.4
2018-03-24T06:49:25.615Z,22.21
2018-03-24T06:50:34.446Z,22.21
2018-03-24T06:51:43.280Z,22.31
2018-03-24T06:52:52.388Z,22.31
2018-03-24T06:54:01.221Z,22.4
2018-03-24T06:55:10.352Z,22.4
2018-03-24T06:56:19.464Z,22.21
2018-03-24T06:57:28.298Z,22.31
2018-03-24T06:58:37.132Z,22.12
2018-03-24T06:59:45.964Z,22.12
2018-03-24T07:00:55.128Z,22.4
2018-03-24T07:02:03.960Z,22.31
2018-03-24T07:03:12.793Z,22.31
2018-03-24T07:04:21.626Z,22.21
2018-03-24T07:05:30.462Z,22.21
2018-03-24T07:06:39.445Z,22.21
2018-03-24T07:07:48.600Z,22.78
2018-03-24T07:08:57.383Z,22.4
2018-03-24T07:10:06.542Z,22.21
2018-03-24T07:11:15.376Z,22.78
2018-03-24T07:12:24.484Z,22.78
2018-03-24T07:13:33.312Z,22.78
2018-03-24T07:14:42.145Z,22.97
2018-03-24T07:15:51.009Z,22.97
2018-03-24T07:16:59.818Z,22.88
2018-03-24T07:18:09.353Z,22.88
2018-03-24T07:19:18.186Z,23.07
2018-03-24T07:20:27.020Z,23.25
2018-03-24T07:21:35.856Z,23.25
2018-03-24T07:22:44.684Z,23.16
2018-03-24T07:23:53.615Z,23.07
2018-03-24T07:25:02.453Z,22.97
2018-03-24T07:26:11.286Z,23.07
2018-03-24T07:27:20.392Z,23.07
2018-03-24T07:28:29.222Z,22.88
2018-03-24T07:29:38.155Z,23.07
2018-03-24T07:30:46.990Z,23.25
2018-03-24T07:31:55.822Z,22.8
2018-03-24T07:33:04.653Z,22.21
2018-03-24T07:34:13.489Z,22.88
2018-03-24T07:35:22.471Z,23.46
2018-03-24T07:36:31.304Z,23.74
2018-03-24T07:37:40.136Z,23.46
2018-03-24T07:38:48.969Z,23.18
2018-03-24T07:39:57.803Z,23.93
2018-03-24T07:41:06.736Z,23.74
2018-03-24T07:42:15.570Z,23.93
2018-03-24T07:43:24.399Z,24.51
2018-03-24T07:44:33.228Z,24.41
2018-03-24T07:45:42.060Z,24.41
2018-03-24T07:46:50.995Z,24.51
2018-03-24T07:47:59.831Z,24.51
2018-03-24T07:49:08.664Z,24.41
2018-03-24T07:50:17.498Z,24.6
2018-03-24T07:51:26.331Z,24.41
2018-03-24T07:52:35.466Z,24.6
2018-03-24T07:53:44.305Z,24.22
2018-03-24T07:54:53.141Z,23.74
2018-03-24T07:56:02.245Z,23.65
2018-03-24T07:57:11.631Z,23.93
2018-03-24T07:58:20.465Z,24.41
2018-03-24T07:59:29.296Z,24.22
2018-03-24T08:00:38.130Z,24.32
2018-03-24T08:01:46.968Z,24.69
2018-03-24T08:02:55.801Z,25.07
2018-03-24T08:04:04.688Z,25.26
2018-03-24T08:05:13.528Z,25.36
2018-03-24T08:06:22.355Z,25.55
2018-03-24T08:07:31.188Z,26.5
2018-03-24T08:08:40.022Z,26.88
2018-03-24T08:09:49.285Z,26.97
2018-03-24T08:10:58.116Z,28.3
2018-03-24T08:12:07.225Z,28.21
2018-03-24T08:13:16.057Z,29.35
2018-03-24T08:14:25.163Z,28.88
2018-03-24T08:15:34.049Z,28.97
2018-03-24T08:16:42.880Z,28.97
2018-03-24T08:17:51.713Z,28.97
2018-03-24T08:19:00.547Z,29.08
2018-03-24T08:20:09.379Z,30.69
2018-03-24T08:21:18.211Z,31.07
2018-03-24T08:22:27.320Z,31.93
2018-03-24T08:23:36.156Z,31.84
2018-03-24T08:24:45.270Z,31.74
2018-03-24T08:25:54.378Z,32.21
2018-03-24T08:27:03.369Z,32.59
2018-03-24T08:28:12.203Z,32.03
2018-03-24T08:29:21.037Z,31.93
2018-03-24T08:30:29.877Z,32.97
2018-03-24T08:31:38.708Z,33.45
2018-03-24T08:32:47.596Z,34.11
2018-03-24T08:33:56.437Z,33.92
2018-03-24T08:35:05.547Z,34.69
2018-03-24T08:36:14.388Z,34.78
2018-03-24T08:37:23.218Z,35.16
2018-03-24T08:38:32.681Z,34.97
2018-03-24T08:39:41.514Z,36.02
2018-03-24T08:40:50.626Z,36.96
2018-03-24T08:41:59.461Z,38.2
2018-03-24T08:43:08.293Z,39.62
2018-03-24T08:44:17.409Z,40.1
2018-03-24T08:45:26.243Z,39.81
2018-03-24T08:46:35.079Z,41.81
2018-03-24T08:47:43.914Z,41.81
2018-03-24T08:48:52.746Z,41.91
2018-03-24T08:50:01.747Z,41.05
2018-03-24T08:51:10.513Z,40.77
2018-03-24T08:52:19.345Z,41.55
2018-03-24T08:53:28.178Z,42.69
2018-03-24T08:54:37.307Z,44.21
2018-03-24T08:55:46.191Z,45.35
2018-03-24T08:56:55.025Z,46.2
2018-03-24T08:58:03.858Z,47.16
2018-03-24T08:59:12.700Z,48.3
2018-03-24T09:00:21.536Z,48.58
2018-03-24T09:01:30.524Z,48.77
2018-03-24T09:02:39.361Z,48.49
2018-03-24T09:03:48.198Z,48.01
2018-03-24T09:04:57.031Z,48.11
2018-03-24T09:06:05.867Z,48.01
2018-03-24T09:07:15.105Z,50.1
2018-03-24T09:08:24.214Z,50.29
2018-03-24T09:09:33.053Z,49.35
2018-03-24T09:10:41.887Z,50.48
2018-03-24T09:11:50.734Z,51.91
2018-03-24T09:12:59.960Z,53.15
2018-03-24T09:14:08.795Z,52.96
2018-03-24T09:15:17.633Z,53.15
2018-03-24T09:16:26.463Z,52.86
2018-03-24T09:17:35.301Z,53.15
2018-03-24T09:18:44.284Z,53.34
2018-03-24T09:19:53.124Z,52.86
2018-03-24T09:21:01.970Z,53.63
2018-03-24T09:22:11.095Z,53.81
2018-03-24T09:23:20.208Z,53.63
2018-03-24T09:24:29.144Z,53.63
2018-03-24T09:25:37.981Z,53.81
2018-03-24T09:26:46.815Z,54.1
2018-03-24T09:27:55.649Z,55.27
2018-03-24T09:29:04.482Z,55.46
2018-03-24T09:30:13.744Z,56
2018-03-24T09:31:22.581Z,56.22
2018-03-24T09:32:31.414Z,56.12
2018-03-24T09:33:40.528Z,56.41
2018-03-24T09:34:49.363Z,56.22
2018-03-24T09:35:58.600Z,56.22
2018-03-24T09:37:07.435Z,55.93
2018-03-24T09:38:16.550Z,58.22
2018-03-24T09:39:25.661Z,58.03
2018-03-24T09:40:34.504Z,59.27
2018-03-24T09:41:43.759Z,58.69
2018-03-24T09:42:52.592Z,59.64
2018-03-24T09:44:01.428Z,59.45
2018-03-24T09:45:10.260Z,59.17
2018-03-24T09:46:19.093Z,59.36
2018-03-24T09:47:28.132Z,60.02
2018-03-24T09:48:36.915Z,59.17
2018-03-24T09:49:45.747Z,60.12
2018-03-24T09:50:54.582Z,60.41
2018-03-24T09:52:03.418Z,60.6
2018-03-24T09:53:12.404Z,60.41
2018-03-24T09:54:21.241Z,61
2018-03-24T09:55:30.078Z,61.48
2018-03-24T09:56:38.912Z,61.67
2018-03-24T09:57:47.749Z,61.48
2018-03-24T09:58:56.637Z,62.05
2018-03-24T10:00:05.746Z,63.1
2018-03-24T10:01:14.582Z,63.01
2018-03-24T10:02:23.418Z,62.62
2018-03-24T10:03:32.254Z,63.2
2018-03-24T10:04:41.090Z,64.05
2018-03-24T10:05:49.924Z,63.39
2018-03-24T10:06:58.762Z,63.67
2018-03-24T10:08:07.600Z,64.24
2018-03-24T10:09:16.715Z,63.76
2018-03-24T10:10:25.749Z,63.96
2018-03-24T10:11:34.586Z,64.05
2018-03-24T10:12:43.423Z,64.15
2018-03-24T10:13:52.261Z,63.96
2018-03-24T10:15:01.097Z,65.13
2018-03-24T10:16:10.135Z,65.19
2018-03-24T10:17:18.973Z,64.56
2018-03-24T10:18:27.807Z,65.61
2018-03-24T10:19:36.644Z,65.61
2018-03-24T10:20:45.480Z,65.99
2018-03-24T10:21:54.318Z,65.89
2018-03-24T10:23:03.154Z,66.27
2018-03-24T10:24:11.990Z,66.18
2018-03-24T10:25:20.831Z,67.03
2018-03-24T10:26:29.669Z,67.51
2018-03-24T10:27:38.605Z,67.51
2018-03-24T10:28:47.440Z,68.08
2018-03-24T10:29:56.276Z,68.21
2018-03-24T10:31:05.112Z,68.4
2018-03-24T10:32:13.950Z,68.3
2018-03-24T10:33:22.937Z,68.3
2018-03-24T10:34:31.777Z,69.54
2018-03-24T10:35:40.615Z,70.12
2018-03-24T10:36:49.451Z,70.21
2018-03-24T10:37:58.292Z,70.4
2018-03-24T10:39:07.176Z,70.4
2018-03-24T10:40:16.013Z,70.08
2018-03-24T10:41:24.890Z,70.27
2018-03-24T10:42:34.014Z,70.65
2018-03-24T10:43:42.851Z,70.56
2018-03-24T10:44:52.078Z,70.69
2018-03-24T10:46:00.913Z,70.5
2018-03-24T10:47:09.751Z,70.4
2018-03-24T10:48:18.585Z,70.69
2018-03-24T10:49:27.421Z,70.88
2018-03-24T10:50:36.410Z,70.59
2018-03-24T10:51:45.526Z,71.45
2018-03-24T10:52:54.361Z,70.69
2018-03-24T10:54:03.200Z,71.17
2018-03-24T10:55:12.034Z,71.26
2018-03-24T10:56:21.448Z,71.2
2018-03-24T10:57:30.561Z,72.72
2018-03-24T10:58:39.396Z,72.53
2018-03-24T10:59:48.235Z,72.02
2018-03-24T11:00:57.072Z,72.78
2018-03-24T11:02:06.009Z,72.41
2018-03-24T11:03:14.845Z,72.25
2018-03-24T11:04:23.681Z,74.16
2018-03-24T11:05:32.516Z,73.3
2018-03-24T11:06:41.354Z,73.96
2018-03-24T11:07:50.719Z,73.83
2018-03-24T11:08:59.552Z,74.12
2018-03-24T11:10:08.394Z,74.06
2018-03-24T11:11:17.280Z,73.87
2018-03-24T11:12:26.084Z,73.87
2018-03-24T11:13:35.196Z,74.16
2018-03-24T11:14:44.034Z,73.96
2018-03-24T11:15:52.870Z,74.44
2018-03-24T11:17:01.707Z,74.63
2018-03-24T11:18:10.542Z,74.44
2018-03-24T11:19:19.429Z,75.87
2018-03-24T11:20:28.268Z,75.3
2018-03-24T11:21:37.106Z,75.87
2018-03-24T11:22:46.221Z,75.78
2018-03-24T11:23:55.062Z,76.16
2018-03-24T11:25:03.894Z,76.06
2018-03-24T11:26:12.730Z,76.35
2018-03-24T11:27:21.568Z,77.49
2018-03-24T11:28:30.402Z,77.49
2018-03-24T11:29:39.241Z,77.97
2018-03-24T11:30:48.137Z,77.69
2018-03-24T11:31:56.967Z,77.78
2018-03-24T11:33:06.111Z,78.44
2018-03-24T11:34:14.920Z,78.16
2018-03-24T11:35:24.034Z,77.49
2018-03-24T11:36:33.072Z,78.44
2018-03-24T11:37:41.909Z,78.44
2018-03-24T11:38:51.061Z,78.25
2018-03-24T11:39:59.892Z,77.87
2018-03-24T11:41:08.730Z,78.25
2018-03-24T11:42:17.672Z,78.25
2018-03-24T11:43:26.510Z,78.35
2018-03-24T11:44:35.348Z,78.35
2018-03-24T11:45:44.188Z,78.64
2018-03-24T11:46:53.031Z,79.4
2018-03-24T11:48:02.022Z,78.83
2018-03-24T11:49:10.848Z,79.59
2018-03-24T11:50:19.683Z,78.83
2018-03-24T11:51:28.523Z,80.54
2018-03-24T11:52:37.362Z,80.26
2018-03-24T11:53:46.523Z,80.16
2018-03-24T11:54:55.359Z,80.16
2018-03-24T11:56:04.197Z,80.16
2018-03-24T11:57:13.310Z,80.92
2018-03-24T11:58:22.150Z,80.64
2018-03-24T11:59:30.989Z,82.17
2018-03-24T12:00:39.828Z,81.59
2018-03-24T12:01:48.671Z,82.17
2018-03-24T12:02:57.499Z,82.26
2018-03-24T12:04:06.339Z,82.07
2018-03-24T12:05:15.277Z,82.83
2018-03-24T12:06:24.390Z,82.92
2018-03-24T12:07:33.230Z,82.83
2018-03-24T12:08:42.063Z,82.35
2018-03-24T12:09:50.901Z,82.31
2018-03-24T12:10:59.839Z,82.26
2018-03-24T12:12:08.949Z,82.26
2018-03-24T12:13:17.785Z,83.69
2018-03-24T12:14:26.626Z,83.55
2018-03-24T12:15:35.459Z,83.97
2018-03-24T12:16:44.406Z,84.03
2018-03-24T12:17:53.243Z,83.74
2018-03-24T12:19:02.127Z,84.88
2018-03-24T12:20:11.197Z,84.03
2018-03-24T12:21:20.306Z,84.03
2018-03-24T12:22:29.240Z,84.03
2018-03-24T12:23:38.078Z,84.22
2018-03-24T12:24:46.914Z,84.64
2018-03-24T12:25:55.749Z,84.16
2018-03-24T12:27:04.590Z,83.55
2018-03-24T12:28:13.424Z,83.93
2018-03-24T12:29:22.535Z,83.55
2018-03-24T12:30:31.372Z,83.31
2018-03-24T12:31:40.210Z,84.55
2018-03-24T12:32:49.046Z,83.78
2018-03-24T12:33:58.034Z,84.74
2018-03-24T12:35:06.869Z,84.55
2018-03-24T12:36:15.707Z,85.5
2018-03-24T12:37:24.820Z,86.74
2018-03-24T12:38:33.657Z,87.98
2018-03-24T12:39:42.743Z,88.36
2018-03-24T12:40:51.580Z,88.17
2018-03-24T12:42:00.414Z,88.55
2018-03-24T12:43:09.303Z,88.93
2018-03-24T12:44:18.081Z,89.03
2018-03-24T12:45:27.216Z,88.93
2018-03-24T12:46:36.153Z,88.6
2018-03-24T12:47:44.989Z,88.22
2018-03-24T12:48:53.825Z,89.26
2018-03-24T12:50:02.662Z,89.12
2018-03-24T12:51:11.603Z,88.84
2018-03-24T12:52:20.436Z,88.26
2018-03-24T12:53:29.273Z,88.26
2018-03-24T12:54:38.108Z,88.45
2018-03-24T12:55:47.219Z,88.93
2018-03-24T12:56:56.305Z,88.36
2018-03-24T12:58:05.140Z,88.55
2018-03-24T12:59:13.977Z,89.79
2018-03-24T13:00:23.095Z,88.93
2018-03-24T13:01:32.204Z,88.55
2018-03-24T13:02:41.091Z,87.4
2018-03-24T13:03:49.927Z,87.6
2018-03-24T13:04:58.764Z,88.64
2018-03-24T13:06:07.601Z,87.88
2018-03-24T13:07:16.436Z,86.74
2018-03-24T13:08:25.550Z,86.55
2018-03-24T13:09:34.401Z,86.55
2018-03-24T13:10:43.232Z,87.02
2018-03-24T13:11:52.070Z,86.36
2018-03-24T13:13:00.903Z,86.74
2018-03-24T13:14:10.401Z,86.55
2018-03-24T13:15:19.238Z,86.36
2018-03-24T13:16:28.073Z,87.02
2018-03-24T13:17:36.915Z,86.55
2018-03-24T13:18:46.032Z,86.74
2018-03-24T13:19:54.921Z,86.55
2018-03-24T13:21:03.764Z,86.55
2018-03-24T13:22:12.593Z,87.6
2018-03-24T13:23:21.432Z,88.36
2018-03-24T13:24:30.275Z,88.17
2018-03-24T13:25:39.440Z,86.93
2018-03-24T13:26:48.276Z,87.69
2018-03-24T13:27:57.113Z,87.79
2018-03-24T13:29:05.950Z,87.79
2018-03-24T13:30:15.068Z,87.69
2018-03-24T13:31:24.381Z,86.65
2018-03-24T13:32:33.492Z,87.31
2018-03-24T13:33:42.348Z,87.88
2018-03-24T13:34:51.162Z,86.55
2018-03-24T13:36:00.009Z,86.16
2018-03-24T13:37:08.937Z,86.55
2018-03-24T13:38:17.773Z,86.36
2018-03-24T13:39:26.610Z,86.32
2018-03-24T13:40:35.450Z,87.55
2018-03-24T13:41:44.290Z,87.17
2018-03-24T13:42:53.679Z,87.69
2018-03-24T13:44:02.794Z,86.74
2018-03-24T13:45:11.628Z,87.84
2018-03-24T13:46:20.465Z,87.93
2018-03-24T13:47:29.301Z,87.31
2018-03-24T13:48:38.137Z,87.65
2018-03-24T13:49:46.972Z,87.6
2018-03-24T13:50:55.808Z,87.98
2018-03-24T13:52:04.648Z,87.88
2018-03-24T13:53:13.487Z,87.55
2018-03-24T13:54:22.626Z,87.79
2018-03-24T13:55:32.027Z,87.93
2018-03-24T13:56:40.862Z,87.98
2018-03-24T13:57:49.977Z,87.4
2018-03-24T13:58:58.813Z,87.93
2018-03-24T14:00:07.749Z,88.84
2018-03-24T14:01:16.857Z,88.12
2018-03-24T14:02:25.691Z,87.69
2018-03-24T14:03:34.526Z,88.36
2018-03-24T14:04:43.366Z,87.4
2018-03-24T14:05:52.247Z,88.12
2018-03-24T14:07:01.085Z,88.45
2018-03-24T14:08:09.922Z,88.31
2018-03-24T14:09:18.758Z,88.45
2018-03-24T14:10:27.595Z,87.74
2018-03-24T14:11:36.532Z,87.93
2018-03-24T14:12:45.372Z,87.55
2018-03-24T14:13:54.207Z,88.31
2018-03-24T14:15:03.044Z,88.51
2018-03-24T14:16:11.878Z,88.41
2018-03-24T14:17:20.764Z,88.6
2018-03-24T14:18:29.602Z,89.17
2018-03-24T14:19:38.439Z,88.45
2018-03-24T14:20:47.274Z,87.65
2018-03-24T14:21:56.387Z,88.03
2018-03-24T14:23:05.620Z,88.89
2018-03-24T14:24:14.456Z,88.45
2018-03-24T14:25:23.291Z,87.69
2018-03-24T14:26:32.128Z,88.6
2018-03-24T14:27:40.965Z,88.31
2018-03-24T14:28:50.101Z,88.84
2018-03-24T14:29:58.936Z,87.21
2018-03-24T14:31:07.776Z,87.69
2018-03-24T14:32:16.612Z,88.26
2018-03-24T14:33:25.447Z,88.31
2018-03-24T14:34:34.709Z,88.36
2018-03-24T14:35:43.543Z,88.93
2018-03-24T14:36:52.380Z,89.22
2018-03-24T14:38:01.223Z,90.26
2018-03-24T14:39:10.059Z,90.45
2018-03-24T14:40:18.900Z,90.93
2018-03-24T14:41:27.737Z,90.84
2018-03-24T14:42:36.573Z,89.5
2018-03-24T14:43:45.408Z,90.26
2018-03-24T14:44:54.244Z,90.74
2018-03-24T14:46:03.078Z,89.6
2018-03-24T14:47:11.915Z,89.98
2018-03-24T14:48:20.750Z,89.03
2018-03-24T14:49:29.586Z,88.07
2018-03-24T14:50:38.422Z,88.45
2018-03-24T14:51:47.359Z,89.6
2018-03-24T14:52:56.470Z,89.69